sensor_id;sensor_type;location;lat;lon;timestamp;P1;durP1;ratioP1;P2;durP2;ratioP2
23590;SDS011;11973;52.098;7.582;2022-11-20T00:01:12;19.98;;;17.63;;
23590;SDS011;11973;52.098;7.582;2022-11-20T00:03:46;19.90;;;17.48;;
23590;SDS011;11973;52.098;7.582;2022-11-20T00:06:15;18.85;;;16.88;;
23590;SDS011;11973;52.098;7.582;2022-11-20T00:08:42;20.80;;;17.23;;
23590;SDS011;11973;52.098;7.582;2022-11-20T00:11:09;20.05;;;17.73;;
23590;SDS011;11973;52.098;7.582;2022-11-20T00:13:44;18.77;;;16.77;;
23590;SDS011;11973;52.098;7.582;2022-11-20T00:16:11;21.77;;;18.23;;
23590;SDS011;11973;52.098;7.582;2022-11-20T00:18:37;21.90;;;18.50;;
23590;SDS011;11973;52.098;7.582;2022-11-20T00:21:07;21.25;;;18.08;;
23590;SDS011;11973;52.098;7.582;2022-11-20T00:23:36;22.05;;;18.05;;
23590;SDS011;11973;52.098;7.582;2022-11-20T00:26:05;20.35;;;18.25;;
23590;SDS011;11973;52.098;7.582;2022-11-20T00:28:32;19.98;;;17.88;;
23590;SDS011;11973;52.098;7.582;2022-11-20T00:31:02;23.23;;;19.77;;
23590;SDS011;11973;52.098;7.582;2022-11-20T00:33:29;24.13;;;20.65;;
23590;SDS011;11973;52.098;7.582;2022-11-20T00:36:14;25.42;;;21.20;;
23590;SDS011;11973;52.098;7.582;2022-11-20T00:38:42;28.90;;;23.88;;
23590;SDS011;11973;52.098;7.582;2022-11-20T00:41:10;30.38;;;25.10;;
23590;SDS011;11973;52.098;7.582;2022-11-20T00:43:37;31.02;;;23.98;;
23590;SDS011;11973;52.098;7.582;2022-11-20T00:46:04;23.20;;;19.10;;
23590;SDS011;11973;52.098;7.582;2022-11-20T00:48:31;23.17;;;18.13;;
23590;SDS011;11973;52.098;7.582;2022-11-20T00:50:57;21.83;;;17.35;;
23590;SDS011;11973;52.098;7.582;2022-11-20T00:53:23;18.98;;;16.77;;
23590;SDS011;11973;52.098;7.582;2022-11-20T00:58:23;21.75;;;17.25;;
23590;SDS011;11973;52.098;7.582;2022-11-20T01:00:50;18.52;;;16.52;;
23590;SDS011;11973;52.098;7.582;2022-11-20T01:03:16;18.85;;;16.95;;
23590;SDS011;11973;52.098;7.582;2022-11-20T01:05:43;22.05;;;17.52;;
23590;SDS011;11973;52.098;7.582;2022-11-20T01:08:09;21.13;;;17.48;;
23590;SDS011;11973;52.098;7.582;2022-11-20T01:10:34;20.38;;;17.50;;
23590;SDS011;11973;52.098;7.582;2022-11-20T01:13:00;20.52;;;17.75;;
23590;SDS011;11973;52.098;7.582;2022-11-20T01:15:45;22.52;;;18.15;;
23590;SDS011;11973;52.098;7.582;2022-11-20T01:18:10;20.08;;;17.45;;
23590;SDS011;11973;52.098;7.582;2022-11-20T01:20:36;23.55;;;18.38;;
23590;SDS011;11973;52.098;7.582;2022-11-20T01:23:02;21.23;;;18.42;;
23590;SDS011;11973;52.098;7.582;2022-11-20T01:25:29;21.02;;;17.73;;
23590;SDS011;11973;52.098;7.582;2022-11-20T01:27:55;19.63;;;17.48;;
23590;SDS011;11973;52.098;7.582;2022-11-20T01:30:21;20.25;;;17.40;;
23590;SDS011;11973;52.098;7.582;2022-11-20T01:32:47;20.70;;;17.83;;
23590;SDS011;11973;52.098;7.582;2022-11-20T01:35:12;20.05;;;16.85;;
23590;SDS011;11973;52.098;7.582;2022-11-20T01:37:38;19.83;;;17.73;;
23590;SDS011;11973;52.098;7.582;2022-11-20T01:40:04;20.75;;;17.92;;
23590;SDS011;11973;52.098;7.582;2022-11-20T01:42:30;20.13;;;16.65;;
23590;SDS011;11973;52.098;7.582;2022-11-20T01:48:11;20.00;;;17.83;;
23590;SDS011;11973;52.098;7.582;2022-11-20T01:50:38;19.33;;;17.33;;
23590;SDS011;11973;52.098;7.582;2022-11-20T01:53:07;21.77;;;17.50;;
23590;SDS011;11973;52.098;7.582;2022-11-20T01:55:36;21.48;;;18.08;;
23590;SDS011;11973;52.098;7.582;2022-11-20T01:58:06;23.25;;;18.95;;
23590;SDS011;11973;52.098;7.582;2022-11-20T02:00:33;20.63;;;18.33;;
23590;SDS011;11973;52.098;7.582;2022-11-20T02:03:00;21.95;;;18.73;;
23590;SDS011;11973;52.098;7.582;2022-11-20T02:05:53;21.58;;;18.38;;
23590;SDS011;11973;52.098;7.582;2022-11-20T02:08:30;23.08;;;18.05;;
23590;SDS011;11973;52.098;7.582;2022-11-20T02:10:56;19.58;;;17.02;;
23590;SDS011;11973;52.098;7.582;2022-11-20T02:13:21;21.20;;;17.95;;
23590;SDS011;11973;52.098;7.582;2022-11-20T02:16:08;20.45;;;17.90;;
23590;SDS011;11973;52.098;7.582;2022-11-20T02:18:38;21.13;;;17.55;;
23590;SDS011;11973;52.098;7.582;2022-11-20T02:21:06;20.70;;;17.90;;
23590;SDS011;11973;52.098;7.582;2022-11-20T02:26:48;21.50;;;18.30;;
23590;SDS011;11973;52.098;7.582;2022-11-20T02:29:19;19.35;;;17.23;;
23590;SDS011;11973;52.098;7.582;2022-11-20T02:31:52;21.08;;;18.35;;
23590;SDS011;11973;52.098;7.582;2022-11-20T02:34:20;22.88;;;18.13;;
23590;SDS011;11973;52.098;7.582;2022-11-20T02:36:45;21.17;;;18.13;;
23590;SDS011;11973;52.098;7.582;2022-11-20T02:39:13;21.67;;;19.23;;
23590;SDS011;11973;52.098;7.582;2022-11-20T02:41:41;23.52;;;19.48;;
23590;SDS011;11973;52.098;7.582;2022-11-20T02:44:07;20.42;;;18.13;;
23590;SDS011;11973;52.098;7.582;2022-11-20T02:46:33;21.52;;;18.65;;
23590;SDS011;11973;52.098;7.582;2022-11-20T02:49:00;23.70;;;18.05;;
23590;SDS011;11973;52.098;7.582;2022-11-20T02:51:27;22.17;;;18.40;;
23590;SDS011;11973;52.098;7.582;2022-11-20T02:53:53;22.80;;;18.80;;
23590;SDS011;11973;52.098;7.582;2022-11-20T02:56:19;22.90;;;18.85;;
23590;SDS011;11973;52.098;7.582;2022-11-20T02:58:45;22.15;;;19.02;;
23590;SDS011;11973;52.098;7.582;2022-11-20T03:01:11;23.40;;;17.88;;
23590;SDS011;11973;52.098;7.582;2022-11-20T03:03:37;20.85;;;18.02;;
23590;SDS011;11973;52.098;7.582;2022-11-20T03:06:02;21.92;;;19.58;;
23590;SDS011;11973;52.098;7.582;2022-11-20T03:08:28;22.45;;;20.10;;
23590;SDS011;11973;52.098;7.582;2022-11-20T03:10:54;21.50;;;18.55;;
23590;SDS011;11973;52.098;7.582;2022-11-20T03:13:20;21.67;;;18.10;;
23590;SDS011;11973;52.098;7.582;2022-11-20T03:15:45;22.02;;;18.45;;
23590;SDS011;11973;52.098;7.582;2022-11-20T03:18:11;20.90;;;18.45;;
23590;SDS011;11973;52.098;7.582;2022-11-20T03:20:38;20.20;;;18.02;;
23590;SDS011;11973;52.098;7.582;2022-11-20T03:23:04;22.65;;;17.95;;
23590;SDS011;11973;52.098;7.582;2022-11-20T03:25:30;23.75;;;18.75;;
23590;SDS011;11973;52.098;7.582;2022-11-20T03:27:56;22.83;;;18.98;;
23590;SDS011;11973;52.098;7.582;2022-11-20T03:30:21;22.02;;;18.77;;
23590;SDS011;11973;52.098;7.582;2022-11-20T03:32:47;22.38;;;18.67;;
23590;SDS011;11973;52.098;7.582;2022-11-20T03:35:13;21.13;;;18.08;;
23590;SDS011;11973;52.098;7.582;2022-11-20T03:37:38;21.45;;;18.88;;
23590;SDS011;11973;52.098;7.582;2022-11-20T03:40:04;22.55;;;18.95;;
23590;SDS011;11973;52.098;7.582;2022-11-20T03:42:31;21.10;;;18.58;;
23590;SDS011;11973;52.098;7.582;2022-11-20T03:45:15;21.25;;;18.23;;
23590;SDS011;11973;52.098;7.582;2022-11-20T03:47:42;26.63;;;18.98;;
23590;SDS011;11973;52.098;7.582;2022-11-20T03:50:09;22.10;;;19.50;;
23590;SDS011;11973;52.098;7.582;2022-11-20T03:52:37;21.38;;;18.25;;
23590;SDS011;11973;52.098;7.582;2022-11-20T03:55:04;22.70;;;18.65;;
23590;SDS011;11973;52.098;7.582;2022-11-20T03:57:30;23.55;;;18.92;;
23590;SDS011;11973;52.098;7.582;2022-11-20T03:59:55;22.50;;;19.27;;
23590;SDS011;11973;52.098;7.582;2022-11-20T04:02:21;22.90;;;19.95;;
23590;SDS011;11973;52.098;7.582;2022-11-20T04:04:47;24.05;;;20.08;;
23590;SDS011;11973;52.098;7.582;2022-11-20T04:07:12;21.83;;;18.35;;
23590;SDS011;11973;52.098;7.582;2022-11-20T04:09:38;22.48;;;19.27;;
23590;SDS011;11973;52.098;7.582;2022-11-20T04:12:04;23.45;;;19.88;;
23590;SDS011;11973;52.098;7.582;2022-11-20T04:14:30;22.90;;;18.98;;
23590;SDS011;11973;52.098;7.582;2022-11-20T04:16:55;22.45;;;19.67;;
23590;SDS011;11973;52.098;7.582;2022-11-20T04:19:21;23.13;;;19.55;;
23590;SDS011;11973;52.098;7.582;2022-11-20T04:21:47;23.92;;;19.40;;
23590;SDS011;11973;52.098;7.582;2022-11-20T04:24:12;24.30;;;20.95;;
23590;SDS011;11973;52.098;7.582;2022-11-20T04:26:38;23.13;;;20.23;;
23590;SDS011;11973;52.098;7.582;2022-11-20T04:29:04;23.75;;;19.95;;
23590;SDS011;11973;52.098;7.582;2022-11-20T04:31:31;24.88;;;20.98;;
23590;SDS011;11973;52.098;7.582;2022-11-20T04:33:59;24.30;;;21.10;;
23590;SDS011;11973;52.098;7.582;2022-11-20T04:36:30;25.23;;;20.90;;
23590;SDS011;11973;52.098;7.582;2022-11-20T04:38:57;26.35;;;21.92;;
23590;SDS011;11973;52.098;7.582;2022-11-20T04:41:25;23.75;;;21.15;;
23590;SDS011;11973;52.098;7.582;2022-11-20T04:43:54;26.90;;;21.73;;
23590;SDS011;11973;52.098;7.582;2022-11-20T04:46:24;27.52;;;22.00;;
23590;SDS011;11973;52.098;7.582;2022-11-20T04:48:51;27.20;;;20.30;;
23590;SDS011;11973;52.098;7.582;2022-11-20T04:51:17;22.85;;;20.13;;
23590;SDS011;11973;52.098;7.582;2022-11-20T04:53:43;29.38;;;20.33;;
23590;SDS011;11973;52.098;7.582;2022-11-20T04:56:09;24.38;;;20.85;;
23590;SDS011;11973;52.098;7.582;2022-11-20T04:58:36;24.08;;;21.13;;
23590;SDS011;11973;52.098;7.582;2022-11-20T05:01:02;24.75;;;20.60;;
23590;SDS011;11973;52.098;7.582;2022-11-20T05:03:29;23.33;;;20.02;;
23590;SDS011;11973;52.098;7.582;2022-11-20T05:05:55;25.30;;;20.50;;
23590;SDS011;11973;52.098;7.582;2022-11-20T05:08:21;22.42;;;19.48;;
23590;SDS011;11973;52.098;7.582;2022-11-20T05:10:47;24.45;;;19.48;;
23590;SDS011;11973;52.098;7.582;2022-11-20T05:13:12;23.23;;;19.33;;
23590;SDS011;11973;52.098;7.582;2022-11-20T06:16:13;26.23;;;20.33;;
23590;SDS011;11973;52.098;7.582;2022-11-20T06:18:41;24.00;;;20.08;;
23590;SDS011;11973;52.098;7.582;2022-11-20T06:21:09;23.75;;;19.50;;
23590;SDS011;11973;52.098;7.582;2022-11-20T06:23:40;23.05;;;19.65;;
23590;SDS011;11973;52.098;7.582;2022-11-20T06:26:07;24.85;;;20.70;;
23590;SDS011;11973;52.098;7.582;2022-11-20T06:28:34;27.23;;;20.90;;
23590;SDS011;11973;52.098;7.582;2022-11-20T06:31:00;26.10;;;20.58;;
23590;SDS011;11973;52.098;7.582;2022-11-20T06:33:26;24.13;;;19.73;;
23590;SDS011;11973;52.098;7.582;2022-11-20T06:35:55;25.73;;;19.70;;
23590;SDS011;11973;52.098;7.582;2022-11-20T06:38:21;22.02;;;18.73;;
23590;SDS011;11973;52.098;7.582;2022-11-20T06:40:47;24.33;;;19.45;;
23590;SDS011;11973;52.098;7.582;2022-11-20T06:43:13;22.08;;;19.23;;
23590;SDS011;11973;52.098;7.582;2022-11-20T06:45:38;23.92;;;19.90;;
23590;SDS011;11973;52.098;7.582;2022-11-20T06:48:04;27.17;;;20.98;;
23590;SDS011;11973;52.098;7.582;2022-11-20T06:50:30;23.58;;;19.73;;
23590;SDS011;11973;52.098;7.582;2022-11-20T06:52:56;23.35;;;19.38;;
23590;SDS011;11973;52.098;7.582;2022-11-20T06:55:21;24.08;;;19.33;;
23590;SDS011;11973;52.098;7.582;2022-11-20T06:57:47;23.63;;;19.48;;
23590;SDS011;11973;52.098;7.582;2022-11-20T07:00:13;24.25;;;19.52;;
23590;SDS011;11973;52.098;7.582;2022-11-20T07:02:39;24.38;;;20.17;;
23590;SDS011;11973;52.098;7.582;2022-11-20T07:05:04;26.90;;;21.23;;
23590;SDS011;11973;52.098;7.582;2022-11-20T07:07:30;24.42;;;20.73;;
23590;SDS011;11973;52.098;7.582;2022-11-20T07:09:56;26.38;;;21.48;;
23590;SDS011;11973;52.098;7.582;2022-11-20T07:12:21;29.13;;;21.35;;
23590;SDS011;11973;52.098;7.582;2022-11-20T07:14:47;25.80;;;21.42;;
23590;SDS011;11973;52.098;7.582;2022-11-20T07:17:13;26.45;;;21.40;;
23590;SDS011;11973;52.098;7.582;2022-11-20T07:19:38;26.42;;;20.55;;
23590;SDS011;11973;52.098;7.582;2022-11-20T07:22:04;24.65;;;20.42;;
23590;SDS011;11973;52.098;7.582;2022-11-20T07:24:30;31.25;;;22.05;;
23590;SDS011;11973;52.098;7.582;2022-11-20T07:26:55;27.00;;;22.27;;
23590;SDS011;11973;52.098;7.582;2022-11-20T07:29:21;33.47;;;24.27;;
23590;SDS011;11973;52.098;7.582;2022-11-20T07:31:47;36.25;;;25.33;;
23590;SDS011;11973;52.098;7.582;2022-11-20T07:34:12;31.13;;;23.50;;
23590;SDS011;11973;52.098;7.582;2022-11-20T07:36:38;32.17;;;24.75;;
23590;SDS011;11973;52.098;7.582;2022-11-20T07:39:04;35.28;;;25.85;;
23590;SDS011;11973;52.098;7.582;2022-11-20T07:41:30;34.72;;;26.38;;
23590;SDS011;11973;52.098;7.582;2022-11-20T07:43:56;43.65;;;28.17;;
23590;SDS011;11973;52.098;7.582;2022-11-20T07:46:21;50.15;;;31.15;;
23590;SDS011;11973;52.098;7.582;2022-11-20T07:48:47;53.90;;;31.05;;
23590;SDS011;11973;52.098;7.582;2022-11-20T07:51:13;55.65;;;31.73;;
23590;SDS011;11973;52.098;7.582;2022-11-20T07:53:39;58.53;;;32.88;;
23590;SDS011;11973;52.098;7.582;2022-11-20T07:56:05;65.80;;;32.80;;
23590;SDS011;11973;52.098;7.582;2022-11-20T07:58:39;68.63;;;32.58;;
23590;SDS011;11973;52.098;7.582;2022-11-20T08:01:07;112.72;;;37.03;;
23590;SDS011;11973;52.098;7.582;2022-11-20T08:03:33;78.32;;;36.13;;
23590;SDS011;11973;52.098;7.582;2022-11-20T08:05:59;89.80;;;39.08;;
23590;SDS011;11973;52.098;7.582;2022-11-20T08:08:33;140.43;;;41.67;;
23590;SDS011;11973;52.098;7.582;2022-11-20T08:10:58;112.85;;;39.60;;
23590;SDS011;11973;52.098;7.582;2022-11-20T08:13:44;167.18;;;49.92;;
23590;SDS011;11973;52.098;7.582;2022-11-20T08:16:29;181.65;;;59.10;;
23590;SDS011;11973;52.098;7.582;2022-11-20T08:18:55;143.55;;;49.08;;
23590;SDS011;11973;52.098;7.582;2022-11-20T08:21:30;113.53;;;42.22;;
23590;SDS011;11973;52.098;7.582;2022-11-20T08:23:58;124.95;;;46.67;;
23590;SDS011;11973;52.098;7.582;2022-11-20T08:26:25;129.50;;;45.50;;
23590;SDS011;11973;52.098;7.582;2022-11-20T08:28:57;159.45;;;47.75;;
23590;SDS011;11973;52.098;7.582;2022-11-20T08:31:24;128.30;;;45.42;;
23590;SDS011;11973;52.098;7.582;2022-11-20T08:33:50;137.55;;;47.53;;
23590;SDS011;11973;52.098;7.582;2022-11-20T08:36:17;143.70;;;50.95;;
23590;SDS011;11973;52.098;7.582;2022-11-20T08:39:01;199.32;;;57.97;;
23590;SDS011;11973;52.098;7.582;2022-11-20T08:41:28;187.07;;;53.40;;
23590;SDS011;11973;52.098;7.582;2022-11-20T08:44:02;188.75;;;57.45;;
23590;SDS011;11973;52.098;7.582;2022-11-20T08:46:33;212.50;;;62.75;;
23590;SDS011;11973;52.098;7.582;2022-11-20T08:49:04;217.20;;;61.78;;
23590;SDS011;11973;52.098;7.582;2022-11-20T08:51:31;220.23;;;64.18;;
23590;SDS011;11973;52.098;7.582;2022-11-20T08:53:57;211.82;;;59.05;;
23590;SDS011;11973;52.098;7.582;2022-11-20T08:56:23;227.88;;;55.38;;
23590;SDS011;11973;52.098;7.582;2022-11-20T08:58:49;198.07;;;50.90;;
23590;SDS011;11973;52.098;7.582;2022-11-20T09:01:17;296.48;;;55.65;;
23590;SDS011;11973;52.098;7.582;2022-11-20T09:03:44;252.18;;;54.33;;
23590;SDS011;11973;52.098;7.582;2022-11-20T09:06:09;261.40;;;53.30;;
23590;SDS011;11973;52.098;7.582;2022-11-20T09:08:35;265.02;;;55.30;;
23590;SDS011;11973;52.098;7.582;2022-11-20T09:11:01;285.73;;;56.35;;
23590;SDS011;11973;52.098;7.582;2022-11-20T09:13:28;291.83;;;53.83;;
23590;SDS011;11973;52.098;7.582;2022-11-20T09:15:55;344.02;;;59.60;;
23590;SDS011;11973;52.098;7.582;2022-11-20T09:18:26;299.08;;;58.90;;
23590;SDS011;11973;52.098;7.582;2022-11-20T09:21:00;279.90;;;57.65;;
23590;SDS011;11973;52.098;7.582;2022-11-20T09:23:27;276.02;;;62.22;;
23590;SDS011;11973;52.098;7.582;2022-11-20T09:25:56;291.10;;;60.35;;
23590;SDS011;11973;52.098;7.582;2022-11-20T09:28:27;308.52;;;60.10;;
23590;SDS011;11973;52.098;7.582;2022-11-20T09:30:53;281.85;;;59.90;;
23590;SDS011;11973;52.098;7.582;2022-11-20T09:33:21;306.60;;;60.50;;
23590;SDS011;11973;52.098;7.582;2022-11-20T09:35:47;269.30;;;59.95;;
23590;SDS011;11973;52.098;7.582;2022-11-20T09:38:13;304.25;;;62.90;;
23590;SDS011;11973;52.098;7.582;2022-11-20T09:40:43;272.55;;;58.35;;
23590;SDS011;11973;52.098;7.582;2022-11-20T09:43:15;276.20;;;58.40;;
23590;SDS011;11973;52.098;7.582;2022-11-20T09:54:19;301.52;;;61.28;;
23590;SDS011;11973;52.098;7.582;2022-11-20T09:56:50;254.40;;;59.72;;
23590;SDS011;11973;52.098;7.582;2022-11-20T09:59:50;251.30;;;59.53;;
23590;SDS011;11973;52.098;7.582;2022-11-20T10:10:04;224.93;;;53.33;;
23590;SDS011;11973;52.098;7.582;2022-11-20T10:12:53;224.20;;;54.80;;
23590;SDS011;11973;52.098;7.582;2022-11-20T10:18:42;211.43;;;52.83;;
23590;SDS011;11973;52.098;7.582;2022-11-20T10:24:21;207.05;;;54.65;;
23590;SDS011;11973;52.098;7.582;2022-11-20T10:29:32;197.90;;;55.92;;
23590;SDS011;11973;52.098;7.582;2022-11-20T10:32:14;217.68;;;64.22;;
23590;SDS011;11973;52.098;7.582;2022-11-20T10:37:19;237.50;;;75.28;;
23590;SDS011;11973;52.098;7.582;2022-11-20T10:42:31;196.32;;;57.17;;
23590;SDS011;11973;52.098;7.582;2022-11-20T11:02:21;171.35;;;55.95;;
23590;SDS011;11973;52.098;7.582;2022-11-20T11:04:52;184.50;;;57.85;;
23590;SDS011;11973;52.098;7.582;2022-11-20T11:07:25;173.35;;;58.33;;
23590;SDS011;11973;52.098;7.582;2022-11-20T11:09:55;184.15;;;60.00;;
23590;SDS011;11973;52.098;7.582;2022-11-20T11:12:23;182.13;;;60.53;;
23590;SDS011;11973;52.098;7.582;2022-11-20T11:14:52;173.73;;;58.45;;
23590;SDS011;11973;52.098;7.582;2022-11-20T11:17:23;200.98;;;73.55;;
23590;SDS011;11973;52.098;7.582;2022-11-20T11:22:30;181.25;;;64.03;;
23590;SDS011;11973;52.098;7.582;2022-11-20T11:24:57;175.15;;;62.28;;
23590;SDS011;11973;52.098;7.582;2022-11-20T11:27:24;178.55;;;66.25;;
23590;SDS011;11973;52.098;7.582;2022-11-20T11:29:49;183.68;;;70.43;;
23590;SDS011;11973;52.098;7.582;2022-11-20T11:32:26;182.48;;;68.05;;
23590;SDS011;11973;52.098;7.582;2022-11-20T11:34:58;176.95;;;72.50;;
23590;SDS011;11973;52.098;7.582;2022-11-20T11:37:32;194.82;;;75.78;;
23590;SDS011;11973;52.098;7.582;2022-11-20T11:40:00;170.85;;;66.65;;
23590;SDS011;11973;52.098;7.582;2022-11-20T11:42:27;178.43;;;65.07;;
23590;SDS011;11973;52.098;7.582;2022-11-20T11:44:54;163.55;;;61.22;;
23590;SDS011;11973;52.098;7.582;2022-11-20T11:47:33;159.40;;;64.25;;
23590;SDS011;11973;52.098;7.582;2022-11-20T11:52:56;174.55;;;68.78;;
23590;SDS011;11973;52.098;7.582;2022-11-20T11:55:42;180.23;;;74.38;;
23590;SDS011;11973;52.098;7.582;2022-11-20T12:01:29;160.02;;;74.65;;
23590;SDS011;11973;52.098;7.582;2022-11-20T12:04:05;124.40;;;57.72;;
23590;SDS011;11973;52.098;7.582;2022-11-20T12:06:47;118.57;;;55.33;;
23590;SDS011;11973;52.098;7.582;2022-11-20T12:09:16;97.50;;;51.08;;
23590;SDS011;11973;52.098;7.582;2022-11-20T12:11:47;88.40;;;48.85;;
23590;SDS011;11973;52.098;7.582;2022-11-20T12:14:40;77.05;;;46.47;;
23590;SDS011;11973;52.098;7.582;2022-11-20T12:17:10;57.47;;;38.80;;
23590;SDS011;11973;52.098;7.582;2022-11-20T12:19:38;55.80;;;36.72;;
23590;SDS011;11973;52.098;7.582;2022-11-20T12:30:14;22.20;;;19.75;;
23590;SDS011;11973;52.098;7.582;2022-11-20T12:35:47;15.02;;;13.60;;
23590;SDS011;11973;52.098;7.582;2022-11-20T12:41:29;14.50;;;13.20;;
23590;SDS011;11973;52.098;7.582;2022-11-20T12:50:26;10.50;;;9.60;;
23590;SDS011;11973;52.098;7.582;2022-11-20T12:53:33;10.13;;;9.32;;
23590;SDS011;11973;52.098;7.582;2022-11-20T12:59:22;11.80;;;10.93;;
23590;SDS011;11973;52.098;7.582;2022-11-20T13:04:50;12.70;;;11.60;;
23590;SDS011;11973;52.098;7.582;2022-11-20T13:07:19;12.82;;;11.63;;
23590;SDS011;11973;52.098;7.582;2022-11-20T13:09:48;12.65;;;11.63;;
23590;SDS011;11973;52.098;7.582;2022-11-20T13:17:52;13.63;;;12.45;;
23590;SDS011;11973;52.098;7.582;2022-11-20T13:20:26;14.05;;;12.82;;
23590;SDS011;11973;52.098;7.582;2022-11-20T13:22:53;13.98;;;12.57;;
23590;SDS011;11973;52.098;7.582;2022-11-20T13:25:28;16.05;;;14.45;;
23590;SDS011;11973;52.098;7.582;2022-11-20T13:28:00;16.52;;;14.23;;
23590;SDS011;11973;52.098;7.582;2022-11-20T13:30:29;16.10;;;14.43;;
23590;SDS011;11973;52.098;7.582;2022-11-20T13:32:56;17.60;;;15.52;;
23590;SDS011;11973;52.098;7.582;2022-11-20T13:35:53;38.83;;;28.13;;
23590;SDS011;11973;52.098;7.582;2022-11-20T13:38:21;19.38;;;17.48;;
23590;SDS011;11973;52.098;7.582;2022-11-20T13:40:51;23.58;;;19.83;;
23590;SDS011;11973;52.098;7.582;2022-11-20T13:43:22;25.17;;;19.83;;
23590;SDS011;11973;52.098;7.582;2022-11-20T13:46:02;26.85;;;21.80;;
23590;SDS011;11973;52.098;7.582;2022-11-20T13:48:33;31.88;;;23.83;;
23590;SDS011;11973;52.098;7.582;2022-11-20T13:59:40;20.13;;;17.15;;
23590;SDS011;11973;52.098;7.582;2022-11-20T14:02:12;18.80;;;16.85;;
23590;SDS011;11973;52.098;7.582;2022-11-20T14:04:42;19.88;;;17.77;;
23590;SDS011;11973;52.098;7.582;2022-11-20T14:07:10;20.52;;;17.13;;
23590;SDS011;11973;52.098;7.582;2022-11-20T14:09:37;20.85;;;18.17;;
23590;SDS011;11973;52.098;7.582;2022-11-20T14:12:03;20.88;;;17.42;;
23590;SDS011;11973;52.098;7.582;2022-11-20T14:14:46;23.73;;;19.20;;
23590;SDS011;11973;52.098;7.582;2022-11-20T14:19:57;20.45;;;18.33;;
23590;SDS011;11973;52.098;7.582;2022-11-20T14:22:26;20.88;;;18.33;;
23590;SDS011;11973;52.098;7.582;2022-11-20T14:25:03;28.00;;;19.63;;
23590;SDS011;11973;52.098;7.582;2022-11-20T14:27:32;23.88;;;20.15;;
23590;SDS011;11973;52.098;7.582;2022-11-20T14:30:00;24.25;;;20.40;;
23590;SDS011;11973;52.098;7.582;2022-11-20T14:32:27;25.63;;;21.00;;
23590;SDS011;11973;52.098;7.582;2022-11-20T14:34:55;29.20;;;21.65;;
23590;SDS011;11973;52.098;7.582;2022-11-20T14:37:27;28.05;;;21.55;;
23590;SDS011;11973;52.098;7.582;2022-11-20T14:39:58;29.05;;;22.25;;
23590;SDS011;11973;52.098;7.582;2022-11-20T14:42:26;28.92;;;22.80;;
23590;SDS011;11973;52.098;7.582;2022-11-20T14:44:54;29.90;;;23.45;;
23590;SDS011;11973;52.098;7.582;2022-11-20T14:47:26;31.00;;;24.05;;
23590;SDS011;11973;52.098;7.582;2022-11-20T14:49:54;28.35;;;23.08;;
23590;SDS011;11973;52.098;7.582;2022-11-20T14:52:23;36.20;;;27.20;;
23590;SDS011;11973;52.098;7.582;2022-11-20T14:54:51;36.63;;;27.50;;
23590;SDS011;11973;52.098;7.582;2022-11-20T14:57:22;38.00;;;28.00;;
23590;SDS011;11973;52.098;7.582;2022-11-20T15:02:39;37.42;;;27.35;;
23590;SDS011;11973;52.098;7.582;2022-11-20T15:05:06;35.90;;;26.73;;
23590;SDS011;11973;52.098;7.582;2022-11-20T15:07:34;37.53;;;26.65;;
23590;SDS011;11973;52.098;7.582;2022-11-20T15:10:05;37.00;;;28.52;;
23590;SDS011;11973;52.098;7.582;2022-11-20T15:12:33;41.35;;;29.95;;
23590;SDS011;11973;52.098;7.582;2022-11-20T15:15:02;49.45;;;34.47;;
23590;SDS011;11973;52.098;7.582;2022-11-20T15:17:30;42.67;;;30.85;;
23590;SDS011;11973;52.098;7.582;2022-11-20T15:19:57;42.13;;;29.88;;
23590;SDS011;11973;52.098;7.582;2022-11-20T15:22:26;44.30;;;29.17;;
23590;SDS011;11973;52.098;7.582;2022-11-20T15:24:51;46.60;;;30.02;;
23590;SDS011;11973;52.098;7.582;2022-11-20T15:27:17;45.20;;;31.15;;
23590;SDS011;11973;52.098;7.582;2022-11-20T15:29:43;45.70;;;31.98;;
23590;SDS011;11973;52.098;7.582;2022-11-20T15:32:08;44.58;;;31.27;;
23590;SDS011;11973;52.098;7.582;2022-11-20T15:34:34;43.03;;;31.27;;
23590;SDS011;11973;52.098;7.582;2022-11-20T15:37:00;41.33;;;29.63;;
23590;SDS011;11973;52.098;7.582;2022-11-20T15:39:25;42.03;;;28.77;;
23590;SDS011;11973;52.098;7.582;2022-11-20T15:41:51;42.58;;;29.17;;
23590;SDS011;11973;52.098;7.582;2022-11-20T15:44:17;41.00;;;29.23;;
23590;SDS011;11973;52.098;7.582;2022-11-20T15:46:42;41.47;;;28.95;;
23590;SDS011;11973;52.098;7.582;2022-11-20T15:49:14;44.72;;;30.23;;
23590;SDS011;11973;52.098;7.582;2022-11-20T15:51:43;42.35;;;30.05;;
23590;SDS011;11973;52.098;7.582;2022-11-20T15:54:16;46.53;;;31.45;;
23590;SDS011;11973;52.098;7.582;2022-11-20T15:56:45;48.35;;;32.10;;
23590;SDS011;11973;52.098;7.582;2022-11-20T15:59:12;44.25;;;31.60;;
23590;SDS011;11973;52.098;7.582;2022-11-20T16:01:39;45.90;;;31.73;;
23590;SDS011;11973;52.098;7.582;2022-11-20T16:04:09;47.42;;;33.40;;
23590;SDS011;11973;52.098;7.582;2022-11-20T16:06:39;45.38;;;31.42;;
23590;SDS011;11973;52.098;7.582;2022-11-20T16:09:05;44.42;;;30.17;;
23590;SDS011;11973;52.098;7.582;2022-11-20T16:11:31;42.35;;;29.15;;
23590;SDS011;11973;52.098;7.582;2022-11-20T16:13:57;44.53;;;30.95;;
23590;SDS011;11973;52.098;7.582;2022-11-20T16:16:41;40.25;;;28.75;;
23590;SDS011;11973;52.098;7.582;2022-11-20T16:19:11;41.28;;;28.85;;
23590;SDS011;11973;52.098;7.582;2022-11-20T16:21:38;45.50;;;30.98;;
23590;SDS011;11973;52.098;7.582;2022-11-20T16:24:06;42.83;;;30.92;;
23590;SDS011;11973;52.098;7.582;2022-11-20T16:26:33;42.88;;;30.65;;
23590;SDS011;11973;52.098;7.582;2022-11-20T16:29:00;50.45;;;34.20;;
23590;SDS011;11973;52.098;7.582;2022-11-20T16:31:28;52.00;;;34.92;;
23590;SDS011;11973;52.098;7.582;2022-11-20T16:33:55;50.90;;;34.17;;
23590;SDS011;11973;52.098;7.582;2022-11-20T16:36:22;46.28;;;31.65;;
23590;SDS011;11973;52.098;7.582;2022-11-20T16:38:53;45.58;;;32.25;;
23590;SDS011;11973;52.098;7.582;2022-11-20T16:41:20;48.65;;;33.13;;
23590;SDS011;11973;52.098;7.582;2022-11-20T16:43:50;52.00;;;34.65;;
23590;SDS011;11973;52.098;7.582;2022-11-20T16:46:18;46.60;;;32.30;;
23590;SDS011;11973;52.098;7.582;2022-11-20T16:48:57;47.08;;;31.85;;
23590;SDS011;11973;52.098;7.582;2022-11-20T16:51:31;43.20;;;30.08;;
23590;SDS011;11973;52.098;7.582;2022-11-20T16:54:03;41.88;;;29.45;;
23590;SDS011;11973;52.098;7.582;2022-11-20T16:56:30;43.58;;;30.70;;
23590;SDS011;11973;52.098;7.582;2022-11-20T16:58:56;48.97;;;32.78;;
23590;SDS011;11973;52.098;7.582;2022-11-20T17:01:23;54.28;;;36.33;;
23590;SDS011;11973;52.098;7.582;2022-11-20T17:03:55;54.88;;;36.08;;
23590;SDS011;11973;52.098;7.582;2022-11-20T17:06:26;53.10;;;35.25;;
23590;SDS011;11973;52.098;7.582;2022-11-20T17:08:56;49.55;;;32.83;;
23590;SDS011;11973;52.098;7.582;2022-11-20T17:11:22;47.30;;;32.42;;
23590;SDS011;11973;52.098;7.582;2022-11-20T17:13:49;46.15;;;32.08;;
23590;SDS011;11973;52.098;7.582;2022-11-20T17:16:16;46.35;;;33.25;;
23590;SDS011;11973;52.098;7.582;2022-11-20T17:18:44;46.38;;;31.52;;
23590;SDS011;11973;52.098;7.582;2022-11-20T17:21:10;43.50;;;30.52;;